Aviation Digital Data Service (ADDS)

Output produced by METARs form (1344 UTC 24 April 2014)
found at http://www.aviationweather.gov/adds/metars/
 
KSPI 241136Z 2412/2512 13015KT P6SM BKN100 
     FM241400 15015G30KT P6SM SCT090 OVC250 
     FM241900 16018G28KT P6SM VCSH OVC060 
     FM242300 16015G25KT 5SM -TSRA BR OVC035CB 
     FM250200 14010KT 6SM -RA VCTS OVC015CB 
     FM250600 33012KT P6SM VCSH SCT006 OVC012